
Distance (Route):
Temperature : 0°C
Humidity : 0%
Pressure : 0hPa| Receiver | Date | Latitude | Longitude | Direction | Speed | Altitude | Climb | Temperature | Humidity | Pressure | Voltage | Killtimer | Uptime | BKT | XDATA |
|---|---|---|---|---|---|---|---|---|---|---|---|---|---|---|---|
| DB0UT-7 | 2026-09-01 13:28:01 | 47.30828 | 4.54485 | 96° | 42km/h | 4575m | -1.9m/s | 0°C | 0% | 0hPa | 4.5V | 00:00:00 | 00:00:00 | 00:00:00 | |
| DB0UT-7 | 2026-09-01 13:27:28 | 47.30852 | 4.53962 | 92° | 44km/h | 4631m | -2.0m/s | 0°C | 0% | 0hPa | 4.5V | 00:00:00 | 00:00:00 | 00:00:00 | |
| DB0UT-7 | 2026-09-01 13:26:51 | 47.30856 | 4.53368 | 88° | 40km/h | 4707m | -2.0m/s | 0°C | 0% | 0hPa | 4.5V | 00:00:00 | 00:00:00 | 00:00:00 | |
| DB0UT-7 | 2026-09-01 13:26:18 | 47.30847 | 4.52864 | 90° | 42km/h | 4803m | -2.0m/s | 0°C | 0% | 0hPa | 4.5V | 00:00:00 | 00:00:00 | 00:00:00 | |
| DB0UT-7 | 2026-09-01 13:25:41 | 47.30861 | 4.52288 | 91° | 44km/h | 4859m | -2.1m/s | 0°C | 0% | 0hPa | 4.5V | 00:00:00 | 00:00:00 | 00:00:00 | |
| DB0UT-7 | 2026-09-01 13:24:41 | 47.30913 | 4.51301 | 96° | 47km/h | 4996m | -2.2m/s | 0°C | 0% | 0hPa | 4.5V | 00:00:00 | 00:00:00 | 00:00:00 | |
| DB0UT-7 | 2026-09-01 13:24:11 | 47.30944 | 4.50775 | 95° | 49km/h | 5066m | -2.3m/s | 0°C | 0% | 0hPa | 4.5V | 00:00:00 | 00:00:00 | 00:00:00 | |
| DB0UT-7 | 2026-09-01 13:22:53 | 47.30986 | 4.49345 | 89° | 47km/h | 5266m | -2.4m/s | 0°C | 0% | 0hPa | 4.5V | 00:00:00 | 00:00:00 | 00:00:00 | |
| DB0UT-7 | 2026-09-01 13:22:22 | 47.30982 | 4.48792 | 90° | 51km/h | 5330m | -2.4m/s | 0°C | 0% | 0hPa | 4.5V | 00:00:00 | 00:00:00 | 00:00:00 | |
| DB0UT-7 | 2026-09-01 13:21:37 | 47.30973 | 4.47948 | 90° | 49km/h | 5436m | -2.4m/s | 0°C | 0% | 0hPa | 4.5V | 00:00:00 | 00:00:00 | 00:00:00 | |
| DB0UT-7 | 2026-09-01 13:21:07 | 47.30974 | 4.47392 | 90° | 49km/h | 5504m | -2.2m/s | 0°C | 0% | 0hPa | 4.5V | 00:00:00 | 00:00:00 | 00:00:00 | |
| DB0UT-7 | 2026-09-01 13:20:38 | 47.30971 | 4.46834 | 89° | 49km/h | 5579m | -2.2m/s | 0°C | 0% | 0hPa | 4.5V | 00:00:00 | 00:00:00 | 00:00:00 | |
| DB0UT-7 | 2026-09-01 13:20:07 | 47.30964 | 4.46273 | 91° | 51km/h | 5637m | -2.1m/s | 0°C | 0% | 0hPa | 4.5V | 00:00:00 | 00:00:00 | 00:00:00 | |
| DB0UT-7 | 2026-09-01 13:19:37 | 47.30951 | 4.45704 | 87° | 53km/h | 5700m | -2.1m/s | 0°C | 0% | 0hPa | 4.5V | 00:00:00 | 00:00:00 | 00:00:00 | |
| DB0UT-7 | 2026-09-01 13:19:07 | 47.30926 | 4.45119 | 84° | 55km/h | 5764m | -2.1m/s | 0°C | 0% | 0hPa | 4.5V | 00:00:00 | 00:00:00 | 00:00:00 | |
| DB0ND-19 | 2026-09-01 13:18:35 | 47.30863 | 4.44236 | 84° | 55km/h | 5847m | -2.0m/s | -13.6°C | -1.0% | -1.0hPa | 4.5V | 00:00:00 | 00:00:00 | 00:00:00 | |
| DB0ND-19 | 2026-09-01 13:18:04 | 47.30840 | 4.43800 | 86° | 55km/h | 5888m | -2.0m/s | -14.0°C | -1.0% | -1.0hPa | 4.5V | 00:00:00 | 00:00:00 | 00:00:00 | |
| DB0UT-7 | 2026-09-01 13:17:43 | 47.30822 | 4.43383 | 87° | 57km/h | 5928m | -1.8m/s | 0°C | 0% | 0hPa | 4.5V | 00:00:00 | 00:00:00 | 00:00:00 | |
| DB0UT-7 | 2026-09-01 13:17:10 | 47.30801 | 4.42684 | 90° | 58km/h | 5998m | -2.0m/s | 0°C | 0% | 0hPa | 4.5V | 00:00:00 | 00:00:00 | 00:00:00 | |
| DB0ND-19 | 2026-09-01 13:17:02 | 47.30802 | 4.42258 | 88° | 55km/h | 6039m | -2.2m/s | -15.4°C | -1.0% | -1.0hPa | 4.5V | 00:00:00 | 00:00:00 | 00:00:00 | |
| DB0UT-7 | 2026-09-01 13:16:26 | 47.30804 | 4.41753 | 90° | 58km/h | 6097m | -2.2m/s | 0°C | 0% | 0hPa | 4.5V | 00:00:00 | 00:00:00 | 00:00:00 | |
| DB0ND-19 | 2026-09-01 13:16:00 | 47.30812 | 4.41172 | 94° | 58km/h | 6152m | -2.0m/s | -16.2°C | -1.0% | -1.0hPa | 4.5V | 00:00:00 | 00:00:00 | 00:00:00 | |
| DB0UT-7 | 2026-09-01 13:15:25 | 47.30847 | 4.40435 | 94° | 58km/h | 6228m | -2.2m/s | 0°C | 0% | 0hPa | 4.5V | 00:00:00 | 00:00:00 | 00:00:00 | |
| DB0ND-19 | 2026-09-01 13:14:58 | 47.30866 | 4.39821 | 91° | 58km/h | 6290m | -2.4m/s | -16.9°C | -1.0% | -1.0hPa | 4.5V | 00:00:00 | 00:00:00 | 00:00:00 | |
| DB0UT-7 | 2026-09-01 13:14:13 | 47.30855 | 4.38862 | 87° | 58km/h | 6398m | -2.2m/s | 0°C | 0% | 0hPa | 4.5V | 00:00:00 | 00:00:00 | 00:00:00 | |
| DB0UT-7 | 2026-09-01 13:13:43 | 47.30832 | 4.38204 | 88° | 60km/h | 6470m | -2.5m/s | 0°C | 0% | 0hPa | 4.5V | 00:00:00 | 00:00:00 | 00:00:00 | |
| DB0ND-19 | 2026-09-01 13:13:25 | 47.30814 | 4.37783 | 85° | 58km/h | 6516m | -2.5m/s | -18.8°C | -1.0% | -1.0hPa | 4.5V | 00:00:00 | 00:00:00 | 00:00:00 | |
| DB0UT-7 | 2026-09-01 13:12:37 | 47.30762 | 4.36736 | 86° | 62km/h | 6646m | -2.6m/s | 0°C | 0% | 0hPa | 4.5V | 00:00:00 | 00:00:00 | 00:00:00 | |
| DB0UT-7 | 2026-09-01 13:12:07 | 47.30719 | 4.36049 | 85° | 62km/h | 6722m | -2.6m/s | 0°C | 0% | 0hPa | 4.5V | 00:00:00 | 00:00:00 | 00:00:00 | |
| DB0ND-19 | 2026-09-01 13:11:52 | 47.30685 | 4.35655 | 81° | 62km/h | 6764m | -2.6m/s | -20.6°C | -1.0% | -1.0hPa | 4.5V | 00:00:00 | 00:00:00 | 00:00:00 | |
| DB0UT-7 | 2026-09-01 13:11:30 | 47.30638 | 4.35200 | 80° | 62km/h | 6830m | -2.5m/s | 0°C | 0% | 0hPa | 4.5V | 00:00:00 | 00:00:00 | 00:00:00 | |
| DB0ND-19 | 2026-09-01 13:11:21 | 47.30609 | 4.34974 | 80° | 62km/h | 6846m | -2.5m/s | -21.1°C | -1.0% | -1.0hPa | 4.5V | 00:00:00 | 00:00:00 | 00:00:00 | |
| DB0UT-7 | 2026-09-01 13:10:54 | 47.30534 | 4.34381 | 80° | 60km/h | 6918m | -2.7m/s | 0°C | 0% | 0hPa | 4.5V | 00:00:00 | 00:00:00 | 00:00:00 | |
| DB0ND-19 | 2026-09-01 13:10:50 | 47.30517 | 4.34248 | 79° | 60km/h | 6931m | -2.6m/s | -21.7°C | -1.0% | -1.0hPa | 4.5V | 00:00:00 | 00:00:00 | 00:00:00 | |
| DB0UT-7 | 2026-09-01 13:10:23 | 47.30434 | 4.33692 | 79° | 68km/h | 7000m | -2.5m/s | 0°C | 0% | 0hPa | 4.5V | 00:00:00 | 00:00:00 | 00:00:00 | |
| DB0ND-19 | 2026-09-01 13:10:19 | 47.30418 | 4.33579 | 78° | 62km/h | 7010m | -2.6m/s | -22.2°C | -1.0% | -1.0hPa | 4.5V | 00:00:00 | 00:00:00 | 00:00:00 | |
| DB0ND-19 | 2026-09-01 13:09:48 | 47.30314 | 4.32808 | 78° | 66km/h | 7093m | -2.5m/s | -22.7°C | -1.0% | -1.0hPa | 4.5V | 00:00:00 | 00:00:00 | 00:00:00 | |
| DB0UT-7 | 2026-09-01 13:09:05 | 47.30188 | 4.31792 | 80° | 71km/h | 7191m | -2.4m/s | 0°C | 0% | 0hPa | 4.5V | 00:00:00 | 00:00:00 | 00:00:00 | |
| DB0UT-7 | 2026-09-01 13:08:35 | 47.30084 | 4.30996 | 80° | 78km/h | 7262m | -2.3m/s | 0°C | 0% | 0hPa | 4.5V | 00:00:00 | 00:00:00 | 00:00:00 | |
| DB0ND-19 | 2026-09-01 13:08:14 | 47.30021 | 4.30387 | 80° | 75km/h | 7311m | -2.3m/s | -24.1°C | -1.0% | -1.0hPa | 4.5V | 00:00:00 | 00:00:00 | 00:00:00 | |
| DB0UT-7 | 2026-09-01 13:07:32 | 47.29908 | 4.29216 | 84° | 78km/h | 7406m | -2.2m/s | 0°C | 0% | 0hPa | 4.5V | 00:00:00 | 00:00:00 | 00:00:00 | |
| DB0ND-19 | 2026-09-01 13:07:12 | 47.29855 | 4.28575 | 83° | 77km/h | 7454m | -2.2m/s | -24.2°C | -1.0% | -1.0hPa | 4.5V | 00:00:00 | 00:00:00 | 00:00:00 | |
| DB0UT-7 | 2026-09-01 13:06:58 | 47.29827 | 4.28231 | 84° | 77km/h | 7483m | -2.2m/s | 0°C | 0% | 0hPa | 4.5V | 00:00:00 | 00:00:00 | 00:00:00 | |
| DB0UT-7 | 2026-09-01 13:06:28 | 47.29765 | 4.27370 | 84° | 78km/h | 7575m | -2.5m/s | 0°C | 0% | 0hPa | 4.5V | 00:00:00 | 00:00:00 | 00:00:00 | |
| DB0ND-19 | 2026-09-01 13:06:10 | 47.29725 | 4.26823 | 85° | 77km/h | 7593m | -2.4m/s | -25.3°C | -1.0% | -1.0hPa | 4.5V | 00:00:00 | 00:00:00 | 00:00:00 | |
| DB0UT-7 | 2026-09-01 13:05:48 | 47.29682 | 4.26223 | 84° | 78km/h | 7653m | -2.6m/s | 0°C | 0% | 0hPa | 4.5V | 00:00:00 | 00:00:00 | 00:00:00 | |
| DB0ND-19 | 2026-09-01 13:05:39 | 47.29662 | 4.25934 | 80° | 77km/h | 7677m | -2.7m/s | -25.8°C | -1.0% | -1.0hPa | 4.5V | 00:00:00 | 00:00:00 | 00:00:00 | |
| DB0UT-7 | 2026-09-01 13:05:14 | 47.29569 | 4.25234 | 79° | 82km/h | 7743m | -2.5m/s | 0°C | 0% | 0hPa | 4.5V | 00:00:00 | 00:00:00 | 00:00:00 | |
| DB0ND-19 | 2026-09-01 13:05:08 | 47.29539 | 4.25028 | 77° | 78km/h | 7756m | -2.6m/s | -26.3°C | -1.0% | -1.0hPa | 4.5V | 00:00:00 | 00:00:00 | 00:00:00 | |
| DB0ND-19 | 2026-09-01 13:04:37 | 47.29379 | 4.24084 | 76° | 82km/h | 7834m | -2.4m/s | -27.1°C | -1.0% | -1.0hPa | 4.5V | 00:00:00 | 00:00:00 | 00:00:00 | |
| DB0ND-19 | 2026-09-01 13:04:06 | 47.29226 | 4.23201 | 75° | 80km/h | 7910m | -2.5m/s | -27.6°C | -1.0% | -1.0hPa | 4.5V | 00:00:00 | 00:00:00 | 00:00:00 | |
| DB0UT-7 | 2026-09-01 13:04:00 | 47.29201 | 4.23048 | 78° | 82km/h | 7925m | -2.5m/s | 0°C | 0% | 0hPa | 4.5V | 00:00:00 | 00:00:00 | 00:00:00 | |
| DB0UT-7 | 2026-09-01 13:03:29 | 47.29043 | 4.22132 | 76° | 84km/h | 8005m | -2.5m/s | 0°C | 0% | 0hPa | 4.5V | 00:00:00 | 00:00:00 | 00:00:00 | |
| DB0ND-19 | 2026-09-01 13:03:04 | 47.28906 | 4.21373 | 74° | 80km/h | 8067m | -2.5m/s | -28.8°C | -1.0% | -1.0hPa | 4.5V | 00:00:00 | 00:00:00 | 00:00:00 | |
| DB0UT-7 | 2026-09-01 13:02:44 | 47.28806 | 4.20832 | 76° | 78km/h | 8118m | -2.4m/s | 0°C | 0% | 0hPa | 4.5V | 00:00:00 | 00:00:00 | 00:00:00 | |
| DB0ND-19 | 2026-09-01 13:02:33 | 47.28742 | 4.20494 | 75° | 75km/h | 8142m | -2.4m/s | -29.6°C | -1.0% | -1.0hPa | 4.5V | 00:00:00 | 00:00:00 | 00:00:00 | |
| DB0UT-7 | 2026-09-01 13:02:13 | 47.28645 | 4.19955 | 76° | 80km/h | 8192m | -2.4m/s | 0°C | 0% | 0hPa | 4.5V | 00:00:00 | 00:00:00 | 00:00:00 | |
| DB0ND-19 | 2026-09-01 13:02:02 | 47.28585 | 4.19613 | 74° | 80km/h | 8218m | -2.6m/s | -30.1°C | -1.0% | -1.0hPa | 4.5V | 00:00:00 | 00:00:00 | 00:00:00 | |
| DB0UT-7 | 2026-09-01 13:01:43 | 47.28491 | 4.19096 | 75° | 78km/h | 8266m | -2.6m/s | 0°C | 0% | 0hPa | 4.5V | 00:00:00 | 00:00:00 | 00:00:00 | |
| DB0ND-19 | 2026-09-01 13:01:31 | 47.28421 | 4.18729 | 74° | 77km/h | 8297m | -2.6m/s | -30.9°C | -1.0% | -1.0hPa | 4.5V | 00:00:00 | 00:00:00 | 00:00:00 | |
| DB0ND-19 | 2026-09-01 13:01:00 | 47.28265 | 4.17851 | 76° | 78km/h | 8377m | -2.4m/s | -31.3°C | -1.0% | -1.0hPa | 4.5V | 00:00:00 | 00:00:00 | 00:00:00 | |
| DB0UT-7 | 2026-09-01 13:00:35 | 47.28152 | 4.17175 | 77° | 75km/h | 8440m | -2.5m/s | 0°C | 0% | 0hPa | 4.5V | 00:00:00 | 00:00:00 | 00:00:00 | |
| DB0ND-19 | 2026-09-01 13:00:30 | 47.28121 | 4.16983 | 76° | 77km/h | 8455m | -2.7m/s | -31.9°C | -1.0% | -1.0hPa | 4.5V | 00:00:00 | 00:00:00 | 00:00:00 | |
| DB0UT-7 | 2026-09-01 13:00:06 | 47.28029 | 4.16352 | 79° | 75km/h | 8518m | -2.5m/s | 0°C | 0% | 0hPa | 4.5V | 00:00:00 | 00:00:00 | 00:00:00 | |
| DB0ND-19 | 2026-09-01 12:59:58 | 47.27996 | 4.16134 | 77° | 73km/h | 8535m | -2.5m/s | -32.5°C | -1.0% | -1.0hPa | 4.5V | 00:00:00 | 00:00:00 | 00:00:00 | |
| DB0UT-7 | 2026-09-01 12:58:52 | 47.27775 | 4.14356 | 81° | 75km/h | 8708m | -2.8m/s | 0°C | 0% | 0hPa | 4.5V | 00:00:00 | 00:00:00 | 00:00:00 | |
| DB0UT-7 | 2026-09-01 12:58:22 | 47.27675 | 4.13544 | 78° | 77km/h | 8788m | -2.7m/s | 0°C | 0% | 0hPa | 4.5V | 00:00:00 | 00:00:00 | 00:00:00 | |
| DB0UT-7 | 2026-09-01 12:57:43 | 47.27517 | 4.12439 | 77° | 82km/h | 8899m | -2.6m/s | 0°C | 0% | 0hPa | 4.5V | 00:00:00 | 00:00:00 | 00:00:00 | |
| DB0UT-7 | 2026-09-01 12:57:10 | 47.27365 | 4.11448 | 76° | 82km/h | 8981m | -2.8m/s | 0°C | 0% | 0hPa | 4.5V | 00:00:00 | 00:00:00 | 00:00:00 | |
| DB0UT-7 | 2026-09-01 12:56:40 | 47.27210 | 4.10570 | 75° | 80km/h | 9074m | -2.7m/s | 0°C | 0% | 0hPa | 4.5V | 00:00:00 | 00:00:00 | 00:00:00 | |
| DB0ND-19 | 2026-09-01 12:56:22 | 47.27092 | 4.09992 | 74° | 82km/h | 9117m | -2.7m/s | -36.0°C | -1.0% | -1.0hPa | 4.5V | 00:00:00 | 00:00:00 | 00:00:00 | |
| DB0UT-7 | 2026-09-01 12:55:30 | 47.26814 | 4.08525 | 76° | 80km/h | 9259m | -2.8m/s | 0°C | 0% | 0hPa | 4.5V | 00:00:00 | 00:00:00 | 00:00:00 | |
| DB0ND-19 | 2026-09-01 12:55:19 | 47.26745 | 4.08147 | 75° | 78km/h | 9293m | -2.8m/s | -37.5°C | -1.0% | -1.0hPa | 4.5V | 00:00:00 | 00:00:00 | 00:00:00 | |
| DB0UT-7 | 2026-09-01 12:54:59 | 47.26646 | 4.07624 | 74° | 86km/h | 9348m | -2.9m/s | 0°C | 0% | 0hPa | 4.5V | 00:00:00 | 00:00:00 | 00:00:00 | |
| DB0ND-19 | 2026-09-01 12:54:47 | 47.26572 | 4.07243 | 73° | 82km/h | 9382m | -2.9m/s | -38.4°C | -1.0% | -1.0hPa | 4.5V | 00:00:00 | 00:00:00 | 00:00:00 | |
| DB0ND-19 | 2026-09-01 12:54:16 | 47.26392 | 4.06309 | 75° | 84km/h | 9471m | -3.1m/s | -39.3°C | -1.0% | -1.0hPa | 4.5V | 00:00:00 | 00:00:00 | 00:00:00 | |
| DB0UT-7 | 2026-09-01 12:53:42 | 47.26206 | 4.05275 | 76° | 88km/h | 9576m | -2.7m/s | 0°C | 0% | 0hPa | 4.5V | 00:00:00 | 00:00:00 | 00:00:00 | |
| DB0UT-7 | 2026-09-01 12:53:11 | 47.26029 | 4.04288 | 76° | 89km/h | 9657m | -2.8m/s | 0°C | 0% | 0hPa | 4.5V | 00:00:00 | 00:00:00 | 00:00:00 | |
| DB0ND-19 | 2026-09-01 12:52:43 | 47.25867 | 4.03365 | 75° | 89km/h | 9740m | -3.2m/s | -41.6°C | -1.0% | -1.0hPa | 4.5V | 00:00:00 | 00:00:00 | 00:00:00 | |
| DB0ND-19 | 2026-09-01 12:52:12 | 47.25685 | 4.02382 | 74° | 89km/h | 9834m | -3.0m/s | -42.1°C | -1.0% | -1.0hPa | 4.5V | 00:00:00 | 00:00:00 | 00:00:00 | |
| DB0UT-7 | 2026-09-01 12:51:58 | 47.25615 | 4.01958 | 77° | 95km/h | 9878m | -3.0m/s | 0°C | 0% | 0hPa | 4.5V | 00:00:00 | 00:00:00 | 00:00:00 | |
| DB0UT-7 | 2026-09-01 12:51:28 | 47.25460 | 4.00933 | 78° | 97km/h | 9971m | -3.3m/s | 0°C | 0% | 0hPa | 4.5V | 00:00:00 | 00:00:00 | 00:00:00 | |
| DB0ND-19 | 2026-09-01 12:51:11 | 47.25368 | 4.00262 | 78° | 99km/h | 10027m | -3.1m/s | -43.3°C | -1.0% | -1.0hPa | 4.5V | 00:00:00 | 00:00:00 | 00:00:00 | |
| DB0ND-19 | 2026-09-01 12:50:39 | 47.25223 | 3.99112 | 78° | 99km/h | 10127m | -3.0m/s | -44.4°C | -1.0% | -1.0hPa | 4.5V | 00:00:00 | 00:00:00 | 00:00:00 | |
| DB0UT-7 | 2026-09-01 12:50:13 | 47.25111 | 3.98249 | 77° | 100km/h | 10206m | -3.3m/s | 0°C | 0% | 0hPa | 4.5V | 00:00:00 | 00:00:00 | 00:00:00 | |
| DB0ND-19 | 2026-09-01 12:50:09 | 47.25081 | 3.98031 | 78° | 99km/h | 10222m | -3.3m/s | -45.1°C | -1.0% | -1.0hPa | 4.5V | 00:00:00 | 00:00:00 | 00:00:00 | |
| DB0UT-7 | 2026-09-01 12:49:43 | 47.24944 | 3.97163 | 77° | 102km/h | 10302m | -3.0m/s | 0°C | 0% | 0hPa | 4.5V | 00:00:00 | 00:00:00 | 00:00:00 | |
| DB0ND-19 | 2026-09-01 12:49:37 | 47.24901 | 3.96911 | 76° | 99km/h | 10321m | -3.3m/s | -45.7°C | -1.0% | -1.0hPa | 4.5V | 00:00:00 | 00:00:00 | 00:00:00 | |
| DB0ND-19 | 2026-09-01 12:49:06 | 47.24708 | 3.95782 | 76° | 102km/h | 10420m | -3.4m/s | -46.6°C | -1.0% | -1.0hPa | 4.5V | 00:00:00 | 00:00:00 | 00:00:00 | |
| DB0UT-7 | 2026-09-01 12:48:58 | 47.24662 | 3.95526 | 76° | 106km/h | 10443m | -3.4m/s | 0°C | 0% | 0hPa | 4.5V | 00:00:00 | 00:00:00 | 00:00:00 | |
| DB0UT-7 | 2026-09-01 12:48:23 | 47.24428 | 3.94206 | 75° | 110km/h | 10558m | -3.2m/s | 0°C | 0% | 0hPa | 4.5V | 00:00:00 | 00:00:00 | 00:00:00 | |
| DB0ND-19 | 2026-09-01 12:48:04 | 47.24283 | 3.93383 | 76° | 108km/h | 10621m | -3.3m/s | -48.1°C | -1.0% | -1.0hPa | 4.5V | 00:00:00 | 00:00:00 | 00:00:00 | |
| DB0UT-7 | 2026-09-01 12:47:54 | 47.24227 | 3.93030 | 78° | 111km/h | 10656m | -3.2m/s | 0°C | 0% | 0hPa | 4.5V | 00:00:00 | 00:00:00 | 00:00:00 | |
| DB0UT-7 | 2026-09-01 12:47:23 | 47.24021 | 3.91828 | 77° | 111km/h | 10748m | -3.4m/s | 0°C | 0% | 0hPa | 4.5V | 00:00:00 | 00:00:00 | 00:00:00 | |
| DB0ND-19 | 2026-09-01 12:47:02 | 47.23868 | 3.90950 | 76° | 108km/h | 10812m | -3.0m/s | -49.7°C | -1.0% | -1.0hPa | 4.5V | 00:00:00 | 00:00:00 | 00:00:00 | |
| DB0UT-7 | 2026-09-01 12:46:53 | 47.23812 | 3.90630 | 74° | 111km/h | 10841m | -3.4m/s | 0°C | 0% | 0hPa | 4.5V | 00:00:00 | 00:00:00 | 00:00:00 | |
| DB0ND-19 | 2026-09-01 12:46:31 | 47.23658 | 3.89707 | 76° | 110km/h | 10910m | -2.9m/s | -50.5°C | -1.0% | -1.0hPa | 4.5V | 00:00:00 | 00:00:00 | 00:00:00 | |
| DB0UT-7 | 2026-09-01 12:45:53 | 47.23398 | 3.88216 | 76° | 113km/h | 11029m | -3.1m/s | 0°C | 0% | 0hPa | 4.5V | 00:00:00 | 00:00:00 | 00:00:00 | |
| DB0UT-7 | 2026-09-01 12:45:22 | 47.23162 | 3.86963 | 75° | 115km/h | 11132m | -3.3m/s | 0°C | 0% | 0hPa | 4.5V | 00:00:00 | 00:00:00 | 00:00:00 | |
| DB0UT-7 | 2026-09-01 12:44:52 | 47.22933 | 3.85713 | 76° | 119km/h | 11229m | -3.4m/s | 0°C | 0% | 0hPa | 4.5V | 00:00:00 | 00:00:00 | 00:00:00 | |
| DB0UT-7 | 2026-09-01 12:44:22 | 47.22708 | 3.84439 | 76° | 120km/h | 11337m | -3.1m/s | 0°C | 0% | 0hPa | 4.5V | 00:00:00 | 00:00:00 | 00:00:00 | |
| DB0UT-7 | 2026-09-01 12:43:40 | 47.22394 | 3.82613 | 77° | 120km/h | 11460m | -2.7m/s | 0°C | 0% | 0hPa | 4.5V | 00:00:00 | 00:00:00 | 00:00:00 | |
| DB0UT-7 | 2026-09-01 12:43:10 | 47.22185 | 3.81303 | 78° | 122km/h | 11556m | -2.8m/s | 0°C | 0% | 0hPa | 4.5V | 00:00:00 | 00:00:00 | 00:00:00 | |
| DB0UT-7 | 2026-09-01 12:42:40 | 47.21973 | 3.79985 | 77° | 124km/h | 11653m | -3.3m/s | 0°C | 0% | 0hPa | 4.5V | 00:00:00 | 00:00:00 | 00:00:00 | |
| DB0UT-7 | 2026-09-01 12:42:10 | 47.21749 | 3.78649 | 76° | 126km/h | 11753m | -3.1m/s | 0°C | 0% | 0hPa | 4.5V | 00:00:00 | 00:00:00 | 00:00:00 | |
| DB0UT-7 | 2026-09-01 12:41:40 | 47.21508 | 3.77298 | 74° | 124km/h | 11853m | -3.3m/s | 0°C | 0% | 0hPa | 4.5V | 00:00:00 | 00:00:00 | 00:00:00 | |
| DB0UT-7 | 2026-09-01 12:41:10 | 47.21246 | 3.75962 | 75° | 122km/h | 11958m | -3.4m/s | 0°C | 0% | 0hPa | 4.5V | 00:00:00 | 00:00:00 | 00:00:00 | |
| DB0UT-7 | 2026-09-01 12:40:40 | 47.21041 | 3.74625 | 79° | 117km/h | 12059m | -2.9m/s | 0°C | 0% | 0hPa | 4.5V | 00:00:00 | 00:00:00 | 00:00:00 | |
| DB0UT-7 | 2026-09-01 12:40:10 | 47.20894 | 3.73365 | 80° | 110km/h | 12166m | -3.5m/s | 0°C | 0% | 0hPa | 4.5V | 00:00:00 | 00:00:00 | 00:00:00 | |
| DB0UT-7 | 2026-09-01 12:39:40 | 47.20755 | 3.72162 | 82° | 106km/h | 12274m | -3.6m/s | 0°C | 0% | 0hPa | 4.5V | 00:00:00 | 00:00:00 | 00:00:00 | |
| DB0UT-7 | 2026-09-01 12:39:10 | 47.20631 | 3.71005 | 83° | 97km/h | 12383m | -3.7m/s | 0°C | 0% | 0hPa | 4.5V | 00:00:00 | 00:00:00 | 00:00:00 | |
| DB0UT-7 | 2026-09-01 12:38:40 | 47.20537 | 3.69956 | 82° | 91km/h | 12493m | -3.6m/s | 0°C | 0% | 0hPa | 4.5V | 00:00:00 | 00:00:00 | 00:00:00 | |
| DB0UT-7 | 2026-09-01 12:38:10 | 47.20404 | 3.68960 | 78° | 84km/h | 12612m | -4.0m/s | 0°C | 0% | 0hPa | 4.5V | 00:00:00 | 00:00:00 | 00:00:00 | |
| DB0UT-7 | 2026-09-01 12:37:40 | 47.20259 | 3.68054 | 77° | 82km/h | 12730m | -3.8m/s | 0°C | 0% | 0hPa | 4.5V | 00:00:00 | 00:00:00 | 00:00:00 | |
| DB0UT-7 | 2026-09-01 12:37:10 | 47.20093 | 3.67166 | 76° | 93km/h | 12849m | -3.9m/s | 0°C | 0% | 0hPa | 4.5V | 00:00:00 | 00:00:00 | 00:00:00 | |
| DB0UT-7 | 2026-09-01 12:36:40 | 47.19937 | 3.66160 | 76° | 86km/h | 12964m | -3.7m/s | 0°C | 0% | 0hPa | 4.5V | 00:00:00 | 00:00:00 | 00:00:00 | |
| DB0UT-7 | 2026-09-01 12:36:10 | 47.19724 | 3.65253 | 72° | 91km/h | 13079m | -3.7m/s | 0°C | 0% | 0hPa | 4.5V | 00:00:00 | 00:00:00 | 00:00:00 | |
| DB0UT-7 | 2026-09-01 12:35:40 | 47.19563 | 3.64256 | 80° | 93km/h | 13191m | -3.7m/s | 0°C | 0% | 0hPa | 4.5V | 00:00:00 | 00:00:00 | 00:00:00 | |
| DB0ND-19 | 2026-09-01 12:35:39 | 47.19554 | 3.64189 | 79° | 89km/h | 13194m | -3.5m/s | -55.8°C | -1.0% | -1.0hPa | 4.5V | 00:00:00 | 00:00:00 | 00:00:00 | |
| DB0UT-7 | 2026-09-01 12:35:10 | 47.19452 | 3.63233 | 80° | 89km/h | 13305m | -3.6m/s | 0°C | 0% | 0hPa | 4.5V | 00:00:00 | 00:00:00 | 00:00:00 | |
| DB0ND-19 | 2026-09-01 12:35:08 | 47.19440 | 3.63131 | 80° | 93km/h | 13312m | -3.9m/s | -55.4°C | -1.0% | -1.0hPa | 4.5V | 00:00:00 | 00:00:00 | 00:00:00 | |
| DB0UT-7 | 2026-09-01 12:34:40 | 47.19370 | 3.62254 | 86° | 82km/h | 13426m | -3.9m/s | 0°C | 0% | 0hPa | 4.5V | 00:00:00 | 00:00:00 | 00:00:00 | |
| DB0ND-19 | 2026-09-01 12:34:38 | 47.19361 | 3.62133 | 81° | 78km/h | 13434m | -3.7m/s | -55.4°C | -1.0% | -1.0hPa | 4.5V | 00:00:00 | 00:00:00 | 00:00:00 | |
| DB0UT-7 | 2026-09-01 12:34:10 | 47.19249 | 3.61360 | 76° | 86km/h | 13543m | -4.4m/s | 0°C | 0% | 0hPa | 4.5V | 00:00:00 | 00:00:00 | 00:00:00 | |
| DB0ND-19 | 2026-09-01 12:34:06 | 47.19218 | 3.61177 | 75° | 84km/h | 13564m | -3.8m/s | -54.4°C | -1.0% | -1.0hPa | 4.5V | 00:00:00 | 00:00:00 | 00:00:00 | |
| DB0UT-7 | 2026-09-01 12:33:40 | 47.19126 | 3.60415 | 83° | 88km/h | 13669m | -4.1m/s | 0°C | 0% | 0hPa | 4.5V | 00:00:00 | 00:00:00 | 00:00:00 | |
| DB0ND-19 | 2026-09-01 12:33:35 | 47.19111 | 3.60212 | 83° | 88km/h | 13692m | -4.5m/s | -54.6°C | -1.0% | -1.0hPa | 4.5V | 00:00:00 | 00:00:00 | 00:00:00 | |
| DB0UT-7 | 2026-09-01 12:33:10 | 47.19084 | 3.59439 | 89° | 80km/h | 13801m | -4.5m/s | 0°C | 0% | 0hPa | 4.5V | 00:00:00 | 00:00:00 | 00:00:00 | |
| DB0ND-19 | 2026-09-01 12:33:04 | 47.19078 | 3.59229 | 87° | 78km/h | 13825m | -3.7m/s | -54.1°C | -1.0% | -1.0hPa | 4.5V | 00:00:00 | 00:00:00 | 00:00:00 | |
| DB0UT-7 | 2026-09-01 12:32:40 | 47.19073 | 3.58541 | 90° | 75km/h | 13932m | -3.7m/s | 0°C | 0% | 0hPa | 4.5V | 00:00:00 | 00:00:00 | 00:00:00 | |
| DB0UT-7 | 2026-09-01 12:32:10 | 47.19071 | 3.57691 | 88° | 68km/h | 14064m | -3.6m/s | 0°C | 0% | 0hPa | 4.5V | 00:00:00 | 00:00:00 | 00:00:00 | |
| DB0ND-19 | 2026-09-01 12:32:02 | 47.19057 | 3.57454 | 86° | 68km/h | 14102m | -4.8m/s | -54.8°C | -1.0% | -1.0hPa | 4.5V | 00:00:00 | 00:00:00 | 00:00:00 | |
| DB0UT-7 | 2026-09-01 12:31:40 | 47.19001 | 3.56941 | 73° | 64km/h | 14199m | -4.6m/s | 0°C | 0% | 0hPa | 4.5V | 00:00:00 | 00:00:00 | 00:00:00 | |
| DB0ND-19 | 2026-09-01 12:31:31 | 47.18955 | 3.56693 | 70° | 64km/h | 14247m | -3.8m/s | -55.1°C | -1.0% | -1.0hPa | 4.5V | 00:00:00 | 00:00:00 | 00:00:00 | |
| DB0UT-7 | 2026-09-01 12:31:10 | 47.18840 | 3.56262 | 74° | 66km/h | 14337m | -5.3m/s | 0°C | 0% | 0hPa | 4.5V | 00:00:00 | 00:00:00 | 00:00:00 | |
| DB0ND-19 | 2026-09-01 12:31:00 | 47.18781 | 3.56016 | 74° | 58km/h | 14382m | -4.2m/s | -55.2°C | -1.0% | -1.0hPa | 4.5V | 00:00:00 | 00:00:00 | 00:00:00 | |
| DB0UT-7 | 2026-09-01 12:30:40 | 47.18684 | 3.55558 | 69° | 71km/h | 14476m | -5.2m/s | 0°C | 0% | 0hPa | 4.5V | 00:00:00 | 00:00:00 | 00:00:00 | |
| DB0ND-19 | 2026-09-01 12:30:29 | 47.18631 | 3.55246 | 72° | 71km/h | 14526m | -5.3m/s | -54.9°C | -1.0% | -1.0hPa | 4.5V | 00:00:00 | 00:00:00 | 00:00:00 | |
| DB0UT-7 | 2026-09-01 12:30:10 | 47.18577 | 3.54786 | 87° | 69km/h | 14616m | -4.8m/s | 0°C | 0% | 0hPa | 4.5V | 00:00:00 | 00:00:00 | 00:00:00 | |
| DB0UT-7 | 2026-09-01 12:29:40 | 47.18586 | 3.54022 | 91° | 69km/h | 14752m | -4.8m/s | 0°C | 0% | 0hPa | 4.5V | 00:00:00 | 00:00:00 | 00:00:00 | |
| DB0UT-7 | 2026-09-01 12:29:10 | 47.18570 | 3.53260 | 88° | 68km/h | 14896m | -3.0m/s | 0°C | 0% | 0hPa | 4.5V | 00:00:00 | 00:00:00 | 00:00:00 | |
| DB0ND-19 | 2026-09-01 12:28:56 | 47.18561 | 3.52860 | 86° | 66km/h | 14968m | -6.0m/s | -55.4°C | -1.0% | -1.0hPa | 4.5V | 00:00:00 | 00:00:00 | 00:00:00 | |
| DB0UT-7 | 2026-09-01 12:28:13 | 47.18457 | 3.51831 | 78° | 60km/h | 15193m | -4.6m/s | 0°C | 0% | 0hPa | 4.5V | 00:00:00 | 00:00:00 | 00:00:00 | |
| DB0UT-7 | 2026-09-01 12:27:43 | 47.18316 | 3.51204 | 70° | 66km/h | 15358m | -5.5m/s | 0°C | 0% | 0hPa | 4.5V | 00:00:00 | 00:00:00 | 00:00:00 | |
| DB0UT-7 | 2026-09-01 12:27:13 | 47.18209 | 3.50478 | 88° | 62km/h | 15516m | -6.4m/s | 0°C | 0% | 0hPa | 4.5V | 00:00:00 | 00:00:00 | 00:00:00 | |
| DB0UT-7 | 2026-09-01 12:26:42 | 47.18167 | 3.49768 | 84° | 62km/h | 15696m | -6.0m/s | 0°C | 0% | 0hPa | 4.5V | 00:00:00 | 00:00:00 | 00:00:00 | |
| DB0UT-7 | 2026-09-01 12:26:12 | 47.18136 | 3.49086 | 90° | 57km/h | 15869m | -5.7m/s | 0°C | 0% | 0hPa | 4.5V | 00:00:00 | 00:00:00 | 00:00:00 | |
| DB0UT-7 | 2026-09-01 12:25:42 | 47.18108 | 3.48451 | 90° | 55km/h | 16046m | -5.7m/s | 0°C | 0% | 0hPa | 4.5V | 00:00:00 | 00:00:00 | 00:00:00 | |
| DB0UT-7 | 2026-09-01 12:25:12 | 47.18145 | 3.47851 | 95° | 47km/h | 16227m | -5.6m/s | 0°C | 0% | 0hPa | 4.5V | 00:00:00 | 00:00:00 | 00:00:00 | |
| DB0UT-7 | 2026-09-01 12:24:41 | 47.18155 | 3.47297 | 83° | 44km/h | 16417m | -5.6m/s | 0°C | 0% | 0hPa | 4.5V | 00:00:00 | 00:00:00 | 00:00:00 | |
| DB0UT-7 | 2026-09-01 12:24:11 | 47.18123 | 3.46817 | 82° | 55km/h | 16602m | -6.1m/s | 0°C | 0% | 0hPa | 4.5V | 00:00:00 | 00:00:00 | 00:00:00 | |
| DB0UT-7 | 2026-09-01 12:23:41 | 47.18099 | 3.46214 | 92° | 55km/h | 16788m | -6.2m/s | 0°C | 0% | 0hPa | 4.5V | 00:00:00 | 00:00:00 | 00:00:00 | |
| DB0UT-7 | 2026-09-01 12:23:11 | 47.18123 | 3.45606 | 100° | 42km/h | 16978m | -6.4m/s | 0°C | 0% | 0hPa | 4.5V | 00:00:00 | 00:00:00 | 00:00:00 | |
| DB0UT-7 | 2026-09-01 12:22:41 | 47.18160 | 3.45139 | 88° | 42km/h | 17166m | -6.7m/s | 0°C | 0% | 0hPa | 4.5V | 00:00:00 | 00:00:00 | 00:00:00 | |
| DB0UT-7 | 2026-09-01 12:22:11 | 47.18182 | 3.44666 | 103° | 29km/h | 17355m | -6.2m/s | 0°C | 0% | 0hPa | 4.5V | 00:00:00 | 00:00:00 | 00:00:00 | |
| DL1ZP-14 | 2026-09-01 12:22:05 | 47.18190 | 3.44559 | 97° | 35km/h | 17396m | -6.2m/s | -52.7°C | -1.0% | -1.0hPa | 4.5V | 00:00:00 | 00:00:00 | 00:00:00 | |
| DB0UT-7 | 2026-09-01 12:21:41 | 47.18188 | 3.44346 | 66° | 29km/h | 17549m | -6.8m/s | 0°C | 0% | 0hPa | 4.5V | 00:00:00 | 00:00:00 | 00:00:00 | |
| DB0UT-7 | 2026-09-01 12:21:11 | 47.18047 | 3.44098 | 26° | 42km/h | 17746m | -6.7m/s | 0°C | 0% | 0hPa | 4.5V | 00:00:00 | 00:00:00 | 00:00:00 | |
| DB0ND-19 | 2026-09-01 12:21:10 | 47.18031 | 3.44085 | 28° | 40km/h | 17752m | -5.7m/s | -53.9°C | -1.0% | -1.0hPa | 4.5V | 00:00:00 | 00:00:00 | 00:00:00 | |
| DB0UT-7 | 2026-09-01 12:20:41 | 47.17835 | 3.43749 | 68° | 33km/h | 17949m | -6.5m/s | 0°C | 0% | 0hPa | 4.5V | 00:00:00 | 00:00:00 | 00:00:00 | |
| DB0ND-19 | 2026-09-01 12:20:39 | 47.17823 | 3.43709 | 68° | 31km/h | 17962m | -6.3m/s | -54.5°C | -1.0% | -1.0hPa | 4.5V | 00:00:00 | 00:00:00 | 00:00:00 | |
| DB0UT-7 | 2026-09-01 12:20:11 | 47.17749 | 3.43442 | 68° | 24km/h | 18154m | -6.5m/s | 0°C | 0% | 0hPa | 4.5V | 00:00:00 | 00:00:00 | 00:00:00 | |
| DB0ND-19 | 2026-09-01 12:20:08 | 47.17747 | 3.43375 | 119° | 29km/h | 18180m | -7.2m/s | -54.2°C | -1.0% | -1.0hPa | 4.5V | 00:00:00 | 00:00:00 | 00:00:00 | |
| DL1ZP-14 | 2026-09-01 12:20:00 | 47.17743 | 3.43342 | 67° | 29km/h | 18227m | -7.0m/s | -53.5°C | -1.0% | -1.0hPa | 4.5V | 00:00:00 | 00:00:00 | 00:00:00 | |
| DB0UT-7 | 2026-09-01 12:19:41 | 47.17738 | 3.43201 | 34° | 22km/h | 18356m | -6.1m/s | 0°C | 0% | 0hPa | 4.5V | 00:00:00 | 00:00:00 | 00:00:00 | |
| DB0ND-19 | 2026-09-01 12:19:37 | 47.17722 | 3.43186 | 43° | 16km/h | 18381m | -6.7m/s | -54.6°C | -1.0% | -1.0hPa | 4.5V | 00:00:00 | 00:00:00 | 00:00:00 | |
| DL1ZP-14 | 2026-09-01 12:19:29 | 47.17703 | 3.43131 | 38° | 20km/h | 18439m | -6.4m/s | -54.3°C | -1.0% | -1.0hPa | 4.5V | 00:00:00 | 00:00:00 | 00:00:00 | |
| DB0ND-19 | 2026-09-01 12:19:06 | 47.17618 | 3.42974 | 66° | 22km/h | 18648m | -9.9m/s | -56.0°C | -1.0% | -1.0hPa | 0V | 00:00:00 | 00:00:00 | 00:00:00 | |
| DB0UT-7 | 2026-09-01 12:18:41 | 47.17540 | 3.42665 | 84° | 38km/h | 18849m | -3.7m/s | 0°C | 0% | 0hPa | 0V | 00:00:00 | 00:00:00 | 00:00:00 | |
| DB0UT-7 | 2026-09-01 12:18:11 | 47.17466 | 3.42281 | 81° | 27km/h | 19053m | -6.2m/s | 0°C | 0% | 0hPa | 0V | 00:00:00 | 00:00:00 | 00:00:00 | |
| DB0ND-19 | 2026-09-01 12:18:04 | 47.17465 | 3.42186 | 111° | 57km/h | 19106m | -9.8m/s | -52.5°C | -1.0% | -1.0hPa | 0V | 00:00:00 | 00:00:00 | 00:00:00 | |
| DB0UT-7 | 2026-09-01 12:17:41 | 47.17482 | 3.42016 | 125° | 22km/h | 19266m | -7.0m/s | 0°C | 0% | 0hPa | 0V | 00:00:00 | 00:00:00 | 00:00:00 | |
| DB0ND-19 | 2026-09-01 12:17:34 | 47.17470 | 3.41964 | 350° | 13km/h | 19330m | -5.8m/s | -51.5°C | -1.0% | -1.0hPa | 0V | 00:00:00 | 00:00:00 | 00:00:00 | |
| DB0UT-7 | 2026-09-01 12:17:11 | 47.17407 | 3.41847 | 46° | 26km/h | 19492m | -8.3m/s | 0°C | 0% | 0hPa | 0V | 00:00:00 | 00:00:00 | 00:00:00 | |
| DB0ND-19 | 2026-09-01 12:17:02 | 47.17392 | 3.41758 | 56° | 26km/h | 19570m | -9.9m/s | -53.0°C | -1.0% | -1.0hPa | 0V | 00:00:00 | 00:00:00 | 00:00:00 | |
| DB0UT-7 | 2026-09-01 12:16:41 | 47.17332 | 3.41606 | 53° | 31km/h | 19796m | -8.1m/s | 0°C | 0% | 0hPa | 0V | 00:00:00 | 00:00:00 | 00:00:00 | |
| DB0ND-19 | 2026-09-01 12:16:32 | 47.17292 | 3.41539 | 83° | 33km/h | 19863m | -11.6m/s | -54.5°C | -1.0% | -1.0hPa | 0V | 00:00:00 | 00:00:00 | 00:00:00 | |
| DB0UT-7 | 2026-09-01 12:16:11 | 47.17196 | 3.41420 | 132° | 31km/h | 20023m | -6.0m/s | 0°C | 0% | 0hPa | 0V | 00:00:00 | 00:00:00 | 00:00:00 | |
| DB0UT-7 | 2026-09-01 12:15:41 | 47.17193 | 3.41127 | 131° | 26km/h | 20216m | 3.5m/s | 0°C | 0% | 0hPa | 0V | 00:00:00 | 00:00:00 | 00:00:00 | |
| DB0UT-7 | 2026-09-01 12:15:11 | 47.17203 | 3.40868 | 90° | 26km/h | 20080m | 5.0m/s | 0°C | 0% | 0hPa | 0V | 00:00:00 | 00:00:00 | 00:00:00 | |
| DB0UT-7 | 2026-09-01 12:14:41 | 47.17089 | 3.40650 | 35° | 26km/h | 19939m | 5.6m/s | 0°C | 0% | 0hPa | 0V | 00:00:00 | 00:00:00 | 00:00:00 | |
| DB0UT-7 | 2026-09-01 12:14:10 | 47.16961 | 3.40443 | 48° | 24km/h | 19789m | 4.6m/s | 0°C | 0% | 0hPa | 0V | 00:00:00 | 00:00:00 | 00:00:00 | |
| DB0UT-7 | 2026-09-01 12:13:40 | 47.16830 | 3.40253 | 47° | 26km/h | 19639m | 5.8m/s | 0°C | 0% | 0hPa | 0V | 00:00:00 | 00:00:00 | 00:00:00 | |
| DB0UT-7 | 2026-09-01 12:13:10 | 47.16734 | 3.40006 | 65° | 22km/h | 19491m | 4.8m/s | 0°C | 0% | 0hPa | 0V | 00:00:00 | 00:00:00 | 00:00:00 | |
| DB0UT-7 | 2026-09-01 12:12:40 | 47.16642 | 3.39794 | 69° | 16km/h | 19344m | 5.3m/s | 0°C | 0% | 0hPa | 0V | 00:00:00 | 00:00:00 | 00:00:00 | |
| DB0UT-7 | 2026-09-01 12:12:10 | 47.16611 | 3.39626 | 81° | 26km/h | 19200m | 5.0m/s | 0°C | 0% | 0hPa | 0V | 00:00:00 | 00:00:00 | 00:00:00 | |
| DB0UT-7 | 2026-09-01 12:11:40 | 47.16616 | 3.39342 | 89° | 37km/h | 19057m | 5.1m/s | 0°C | 0% | 0hPa | 0V | 00:00:00 | 00:00:00 | 00:00:00 | |
| DB0UT-7 | 2026-09-01 12:11:10 | 47.16564 | 3.38953 | 75° | 35km/h | 18916m | 4.9m/s | 0°C | 0% | 0hPa | 0V | 00:00:00 | 00:00:00 | 00:00:00 | |
| DB0UT-7 | 2026-09-01 12:10:40 | 47.16475 | 3.38594 | 59° | 33km/h | 18776m | 4.7m/s | 0°C | 0% | 0hPa | 0V | 00:00:00 | 00:00:00 | 00:00:00 | |
| DB0UT-7 | 2026-09-01 12:10:10 | 47.16371 | 3.38277 | 65° | 24km/h | 18635m | 5.0m/s | 0°C | 0% | 0hPa | 0V | 00:00:00 | 00:00:00 | 00:00:00 | |
| DB0UT-7 | 2026-09-01 12:09:40 | 47.16263 | 3.38068 | 40° | 22km/h | 18493m | 4.9m/s | 0°C | 0% | 0hPa | 0V | 00:00:00 | 00:00:00 | 00:00:00 | |
| DB0UT-7 | 2026-09-01 12:09:10 | 47.16165 | 3.37883 | 92° | 22km/h | 18347m | 5.5m/s | 0°C | 0% | 0hPa | 0V | 00:00:00 | 00:00:00 | 00:00:00 | |
| DB0UT-7 | 2026-09-01 12:08:40 | 47.16171 | 3.37640 | 92° | 27km/h | 18199m | 5.5m/s | 0°C | 0% | 0hPa | 0V | 00:00:00 | 00:00:00 | 00:00:00 | |
| DB0UT-7 | 2026-09-01 12:08:10 | 47.16156 | 3.37325 | 82° | 38km/h | 18059m | 5.0m/s | 0°C | 0% | 0hPa | 0V | 00:00:00 | 00:00:00 | 00:00:00 | |
| DB0UT-7 | 2026-09-01 12:07:40 | 47.16017 | 3.36956 | 55° | 37km/h | 17925m | 4.2m/s | 0°C | 0% | 0hPa | 0V | 00:00:00 | 00:00:00 | 00:00:00 | |
| DB0UT-7 | 2026-09-01 12:07:10 | 47.15847 | 3.36647 | 39° | 29km/h | 17791m | 5.0m/s | 0°C | 0% | 0hPa | 0V | 00:00:00 | 00:00:00 | 00:00:00 | |
| DB0UT-7 | 2026-09-01 12:06:40 | 47.15702 | 3.36412 | 53° | 22km/h | 17652m | 5.8m/s | 0°C | 0% | 0hPa | 0V | 00:00:00 | 00:00:00 | 00:00:00 | |
| DB0UT-7 | 2026-09-01 12:06:10 | 47.15679 | 3.36179 | 103° | 35km/h | 17512m | 4.5m/s | 0°C | 0% | 0hPa | 0V | 00:00:00 | 00:00:00 | 00:00:00 | |
| DB0UT-7 | 2026-09-01 12:05:40 | 47.15745 | 3.35804 | 109° | 42km/h | 17374m | 5.0m/s | 0°C | 0% | 0hPa | 0V | 00:00:00 | 00:00:00 | 00:00:00 | |
| DB0UT-7 | 2026-09-01 12:05:09 | 47.15797 | 3.35337 | 93° | 37km/h | 17239m | 5.4m/s | 0°C | 0% | 0hPa | 0V | 00:00:00 | 00:00:00 | 00:00:00 | |
| DB0UT-7 | 2026-09-01 12:04:39 | 47.15824 | 3.34924 | 106° | 46km/h | 17111m | 4.1m/s | 0°C | 0% | 0hPa | 0V | 00:00:00 | 00:00:00 | 00:00:00 | |
| DB0ND-19 | 2026-09-01 12:04:37 | 47.15830 | 3.34880 | 99° | 42km/h | 17101m | 4.8m/s | -55.4°C | -1.0% | -1.0hPa | 0V | 00:00:00 | 00:00:00 | 00:00:00 | |
| DB0UT-7 | 2026-09-01 12:04:09 | 47.15889 | 3.34441 | 105° | 51km/h | 16973m | 4.1m/s | 0°C | 0% | 0hPa | 0V | 00:00:00 | 00:00:00 | 00:00:00 | |
| DB0ND-19 | 2026-09-01 12:04:06 | 47.15898 | 3.34371 | 98° | 49km/h | 16960m | 5.1m/s | -55.7°C | -1.0% | -1.0hPa | 0V | 00:00:00 | 00:00:00 | 00:00:00 | |
| DB0UT-7 | 2026-09-01 12:03:39 | 47.15922 | 3.33863 | 98° | 57km/h | 16837m | 4.4m/s | 0°C | 0% | 0hPa | 0V | 00:00:00 | 00:00:00 | 00:00:00 | |
| DB0ND-19 | 2026-09-01 12:03:35 | 47.15925 | 3.33767 | 87° | 49km/h | 16819m | 5.3m/s | -56.1°C | -1.0% | -1.0hPa | 0V | 00:00:00 | 00:00:00 | 00:00:00 | |
| DB0UT-7 | 2026-09-01 12:03:09 | 47.15925 | 3.33235 | 83° | 49km/h | 16694m | 4.3m/s | 0°C | 0% | 0hPa | 0V | 00:00:00 | 00:00:00 | 00:00:00 | |
| DB0ND-19 | 2026-09-01 12:03:04 | 47.15919 | 3.33073 | 84° | 53km/h | 16663m | 3.7m/s | -56.0°C | -1.0% | -1.0hPa | 0V | 00:00:00 | 00:00:00 | 00:00:00 | |
| DB0UT-7 | 2026-09-01 12:02:39 | 47.15883 | 3.32691 | 85° | 42km/h | 16557m | 5.6m/s | 0°C | 0% | 0hPa | 0V | 00:00:00 | 00:00:00 | 00:00:00 | |
| DB0UT-7 | 2026-09-01 12:02:09 | 47.15856 | 3.32237 | 90° | 44km/h | 16422m | 4.5m/s | 0°C | 0% | 0hPa | 0V | 00:00:00 | 00:00:00 | 00:00:00 | |
| DB0UT-7 | 2026-09-01 12:01:39 | 47.15857 | 3.31748 | 92° | 53km/h | 16291m | 4.7m/s | 0°C | 0% | 0hPa | 0V | 00:00:00 | 00:00:00 | 00:00:00 | |
| DB0ND-19 | 2026-09-01 12:01:32 | 47.15862 | 3.31567 | 91° | 49km/h | 16255m | 5.2m/s | -56.4°C | -1.0% | -1.0hPa | 0V | 00:00:00 | 00:00:00 | 00:00:00 | |
| DB0UT-7 | 2026-09-01 12:01:09 | 47.15880 | 3.31167 | 90° | 57km/h | 16158m | 4.4m/s | 0°C | 0% | 0hPa | 0V | 00:00:00 | 00:00:00 | 00:00:00 | |
| DB0UT-7 | 2026-09-01 12:00:39 | 47.15864 | 3.30542 | 85° | 57km/h | 16024m | 4.3m/s | 0°C | 0% | 0hPa | 0V | 00:00:00 | 00:00:00 | 00:00:00 | |
| DB0ND-19 | 2026-09-01 12:00:29 | 47.15848 | 3.30311 | 83° | 55km/h | 15979m | 6.1m/s | -56.7°C | -1.0% | -1.0hPa | 0V | 00:00:00 | 00:00:00 | 00:00:00 | |
| DB0UT-7 | 2026-09-01 12:00:09 | 47.15814 | 3.29922 | 90° | 60km/h | 15887m | 5.1m/s | 0°C | 0% | 0hPa | 0V | 00:00:00 | 00:00:00 | 00:00:00 | |
| DB0ND-19 | 2026-09-01 11:59:58 | 47.15803 | 3.29662 | 92° | 55km/h | 15837m | 4.3m/s | -56.5°C | -1.0% | -1.0hPa | 0V | 00:00:00 | 00:00:00 | 00:00:00 | |
| DB0UT-7 | 2026-09-01 11:59:39 | 47.15773 | 3.29248 | 84° | 64km/h | 15752m | 5.2m/s | 0°C | 0% | 0hPa | 0V | 00:00:00 | 00:00:00 | 00:00:00 | |
| DB0UT-7 | 2026-09-01 11:59:09 | 47.15685 | 3.28547 | 76° | 64km/h | 15609m | 4.6m/s | 0°C | 0% | 0hPa | 0V | 00:00:00 | 00:00:00 | 00:00:00 | |
| DB0UT-7 | 2026-09-01 11:58:39 | 47.15609 | 3.27853 | 86° | 66km/h | 15461m | 5.0m/s | 0°C | 0% | 0hPa | 0V | 00:00:00 | 00:00:00 | 00:00:00 | |
| DB0UT-7 | 2026-09-01 11:58:09 | 47.15485 | 3.27139 | 75° | 58km/h | 15319m | 4.1m/s | 0°C | 0% | 0hPa | 0V | 00:00:00 | 00:00:00 | 00:00:00 | |
| DB0UT-7 | 2026-09-01 11:57:37 | 47.15351 | 3.26470 | 77° | 66km/h | 15175m | 4.3m/s | 0°C | 0% | 0hPa | 0V | 00:00:00 | 00:00:00 | 00:00:00 | |
| DB0UT-7 | 2026-09-01 11:57:07 | 47.15260 | 3.25763 | 84° | 73km/h | 15040m | 4.3m/s | 0°C | 0% | 0hPa | 0V | 00:00:00 | 00:00:00 | 00:00:00 | |
| DB0UT-7 | 2026-09-01 11:56:37 | 47.15197 | 3.24963 | 85° | 68km/h | 14909m | 3.2m/s | 0°C | 0% | 0hPa | 0V | 00:00:00 | 00:00:00 | 00:00:00 | |
| DB0UT-7 | 2026-09-01 11:56:06 | 47.15171 | 3.24197 | 93° | 69km/h | 14775m | 3.6m/s | 0°C | 0% | 0hPa | 0V | 00:00:00 | 00:00:00 | 00:00:00 | |
| DB0UT-7 | 2026-09-01 11:55:36 | 47.15223 | 3.23442 | 95° | 69km/h | 14646m | 4.3m/s | 0°C | 0% | 0hPa | 0V | 00:00:00 | 00:00:00 | 00:00:00 | |
| DB0UT-7 | 2026-09-01 11:55:06 | 47.15209 | 3.22678 | 83° | 69km/h | 14515m | 4.0m/s | 0°C | 0% | 0hPa | 0V | 00:00:00 | 00:00:00 | 00:00:00 | |
| DB0UT-7 | 2026-09-01 11:54:36 | 47.15091 | 3.21921 | 73° | 68km/h | 14387m | 3.8m/s | 0°C | 0% | 0hPa | 0V | 00:00:00 | 00:00:00 | 00:00:00 | |
| DB0UT-7 | 2026-09-01 11:54:06 | 47.14965 | 3.21202 | 71° | 66km/h | 14260m | 2.6m/s | 0°C | 0% | 0hPa | 0V | 00:00:00 | 00:00:00 | 00:00:00 | |
| DB0UT-7 | 2026-09-01 11:53:36 | 47.14833 | 3.20494 | 81° | 69km/h | 14134m | 2.6m/s | 0°C | 0% | 0hPa | 0V | 00:00:00 | 00:00:00 | 00:00:00 | |
| DB0UT-7 | 2026-09-01 11:53:06 | 47.14771 | 3.19731 | 87° | 82km/h | 14010m | 3.5m/s | 0°C | 0% | 0hPa | 0V | 00:00:00 | 00:00:00 | 00:00:00 | |
| DB0UT-7 | 2026-09-01 11:52:36 | 47.14758 | 3.18820 | 85° | 82km/h | 13888m | 4.6m/s | 0°C | 0% | 0hPa | 0V | 00:00:00 | 00:00:00 | 00:00:00 | |
| DB0UT-7 | 2026-09-01 11:52:06 | 47.14683 | 3.17923 | 88° | 88km/h | 13763m | 3.0m/s | 0°C | 0% | 0hPa | 0V | 00:00:00 | 00:00:00 | 00:00:00 | |
| DB0UT-7 | 2026-09-01 11:51:36 | 47.14634 | 3.16955 | 85° | 88km/h | 13638m | 4.7m/s | 0°C | 0% | 0hPa | 0V | 00:00:00 | 00:00:00 | 00:00:00 | |
| DB0UT-7 | 2026-09-01 11:51:05 | 47.14515 | 3.15957 | 81° | 84km/h | 13502m | 3.7m/s | 0°C | 0% | 0hPa | 0V | 00:00:00 | 00:00:00 | 00:00:00 | |
| DB0UT-7 | 2026-09-01 11:50:28 | 47.14447 | 3.14830 | 86° | 95km/h | 13349m | 3.7m/s | 0°C | 0% | 0hPa | 0V | 00:00:00 | 00:00:00 | 00:00:00 | |
| DB0ND-19 | 2026-09-01 11:50:08 | 47.14402 | 3.14109 | 82° | 95km/h | 13264m | 4.5m/s | -55.9°C | -1.0% | -1.0hPa | 0V | 00:00:00 | 00:00:00 | 00:00:00 | |
| DB0UT-7 | 2026-09-01 11:49:58 | 47.14363 | 3.13780 | 81° | 102km/h | 13221m | 4.3m/s | 0°C | 0% | 0hPa | 0V | 00:00:00 | 00:00:00 | 00:00:00 | |
| DB0UT-7 | 2026-09-01 11:49:28 | 47.14155 | 3.12692 | 71° | 93km/h | 13092m | 4.5m/s | 0°C | 0% | 0hPa | 0V | 00:00:00 | 00:00:00 | 00:00:00 | |
| DB0ND-19 | 2026-09-01 11:49:06 | 47.13988 | 3.11930 | 67° | 88km/h | 12999m | 3.1m/s | -56.2°C | -1.0% | -1.0hPa | 0V | 00:00:00 | 00:00:00 | 00:00:00 | |
| DB0UT-7 | 2026-09-01 11:48:58 | 47.13945 | 3.11709 | 74° | 91km/h | 12964m | 3.5m/s | 0°C | 0% | 0hPa | 0V | 00:00:00 | 00:00:00 | 00:00:00 | |
| DB0UT-7 | 2026-09-01 11:48:28 | 47.13777 | 3.10731 | 81° | 86km/h | 12842m | 3.5m/s | 0°C | 0% | 0hPa | 0V | 00:00:00 | 00:00:00 | 00:00:00 | |
| DB0UT-7 | 2026-09-01 11:47:58 | 47.13628 | 3.09793 | 78° | 88km/h | 12718m | 2.8m/s | 0°C | 0% | 0hPa | 0V | 00:00:00 | 00:00:00 | 00:00:00 | |
| DB0UT-7 | 2026-09-01 11:47:28 | 47.13502 | 3.08835 | 83° | 95km/h | 12598m | 4.0m/s | 0°C | 0% | 0hPa | 0V | 00:00:00 | 00:00:00 | 00:00:00 | |
| DB0UT-7 | 2026-09-01 11:46:58 | 47.13363 | 3.07800 | 80° | 102km/h | 12482m | 3.4m/s | 0°C | 0% | 0hPa | 0V | 00:00:00 | 00:00:00 | 00:00:00 | |
| DB0UT-7 | 2026-09-01 11:46:27 | 47.13253 | 3.06644 | 76° | 111km/h | 12353m | 4.4m/s | 0°C | 0% | 0hPa | 0V | 00:00:00 | 00:00:00 | 00:00:00 | |
| DB0UT-7 | 2026-09-01 11:45:57 | 47.13089 | 3.05418 | 81° | 117km/h | 12224m | 3.7m/s | 0°C | 0% | 0hPa | 0V | 00:00:00 | 00:00:00 | 00:00:00 | |
| DB0UT-7 | 2026-09-01 11:45:27 | 47.12926 | 3.04145 | 77° | 122km/h | 12084m | 2.8m/s | 0°C | 0% | 0hPa | 0V | 00:00:00 | 00:00:00 | 00:00:00 | |
| DB0UT-7 | 2026-09-01 11:44:57 | 47.12665 | 3.02851 | 72° | 122km/h | 11947m | 4.3m/s | 0°C | 0% | 0hPa | 0V | 00:00:00 | 00:00:00 | 00:00:00 | |
| DB0UT-7 | 2026-09-01 11:44:27 | 47.12391 | 3.01560 | 74° | 119km/h | 11823m | 4.8m/s | 0°C | 0% | 0hPa | 0V | 00:00:00 | 00:00:00 | 00:00:00 | |
| DB0UT-7 | 2026-09-01 11:43:57 | 47.12146 | 3.00290 | 76° | 117km/h | 11698m | 4.3m/s | 0°C | 0% | 0hPa | 0V | 00:00:00 | 00:00:00 | 00:00:00 | |
| DB0UT-7 | 2026-09-01 11:43:27 | 47.11891 | 2.99048 | 72° | 117km/h | 11572m | 4.4m/s | 0°C | 0% | 0hPa | 0V | 00:00:00 | 00:00:00 | 00:00:00 | |
| DB0UT-7 | 2026-09-01 11:42:57 | 47.11613 | 2.97824 | 73° | 115km/h | 11450m | 4.8m/s | 0°C | 0% | 0hPa | 0V | 00:00:00 | 00:00:00 | 00:00:00 | |
| DB0UT-7 | 2026-09-01 11:42:27 | 47.11341 | 2.96602 | 72° | 115km/h | 11325m | 3.5m/s | 0°C | 0% | 0hPa | 0V | 00:00:00 | 00:00:00 | 00:00:00 | |
| DB0UT-7 | 2026-09-01 11:41:57 | 47.11093 | 2.95382 | 74° | 113km/h | 11208m | 4.8m/s | 0°C | 0% | 0hPa | 0V | 00:00:00 | 00:00:00 | 00:00:00 | |
| DB0UT-7 | 2026-09-01 11:41:27 | 47.10842 | 2.94178 | 75° | 113km/h | 11060m | 3.3m/s | 0°C | 0% | 0hPa | 0V | 00:00:00 | 00:00:00 | 00:00:00 | |
| DB0UT-7 | 2026-09-01 11:40:56 | 47.10590 | 2.92932 | 72° | 115km/h | 10964m | 3.7m/s | 0°C | 0% | 0hPa | 0V | 00:00:00 | 00:00:00 | 00:00:00 | |
| DB0UT-7 | 2026-09-01 11:40:26 | 47.10342 | 2.91716 | 74° | 113km/h | 10847m | 3.2m/s | 0°C | 0% | 0hPa | 0V | 00:00:00 | 00:00:00 | 00:00:00 | |
| DB0UT-7 | 2026-09-01 11:39:56 | 47.10086 | 2.90513 | 72° | 111km/h | 10731m | 3.9m/s | 0°C | 0% | 0hPa | 0V | 00:00:00 | 00:00:00 | 00:00:00 | |
| DB0UT-7 | 2026-09-01 11:39:26 | 47.09842 | 2.89335 | 75° | 106km/h | 10606m | 3.5m/s | 0°C | 0% | 0hPa | 0V | 00:00:00 | 00:00:00 | 00:00:00 | |
| DB0UT-7 | 2026-09-01 11:38:56 | 47.09632 | 2.88193 | 77° | 104km/h | 10486m | 3.5m/s | 0°C | 0% | 0hPa | 0V | 00:00:00 | 00:00:00 | 00:00:00 | |
| DB0UT-7 | 2026-09-01 11:38:25 | 47.09450 | 2.87038 | 78° | 102km/h | 10365m | 4.5m/s | 0°C | 0% | 0hPa | 0V | 00:00:00 | 00:00:00 | 00:00:00 | |
| DB0UT-7 | 2026-09-01 11:37:55 | 47.09289 | 2.85928 | 77° | 97km/h | 10243m | 3.2m/s | 0°C | 0% | 0hPa | 0V | 00:00:00 | 00:00:00 | 00:00:00 | |
| DB0UT-7 | 2026-09-01 11:37:23 | 47.09103 | 2.84803 | 75° | 93km/h | 10109m | 3.7m/s | 0°C | 0% | 0hPa | 0V | 00:00:00 | 00:00:00 | 00:00:00 | |
| DB0UT-7 | 2026-09-01 11:36:53 | 47.08919 | 2.83820 | 76° | 89km/h | 9985m | 4.7m/s | 0°C | 0% | 0hPa | 0V | 00:00:00 | 00:00:00 | 00:00:00 | |
| DB0UT-7 | 2026-09-01 11:36:23 | 47.08753 | 2.82849 | 78° | 91km/h | 9865m | 3.4m/s | 0°C | 0% | 0hPa | 0V | 00:00:00 | 00:00:00 | 00:00:00 | |
| DB0UT-7 | 2026-09-01 11:35:53 | 47.08597 | 2.81865 | 76° | 89km/h | 9740m | 4.7m/s | 0°C | 0% | 0hPa | 0V | 00:00:00 | 00:00:00 | 00:00:00 | |
| DB0UT-7 | 2026-09-01 11:35:23 | 47.08431 | 2.80891 | 74° | 86km/h | 9615m | 3.7m/s | 0°C | 0% | 0hPa | 0V | 00:00:00 | 00:00:00 | 00:00:00 | |
| DB0UT-7 | 2026-09-01 11:34:53 | 47.08249 | 2.79974 | 74° | 78km/h | 9492m | 3.6m/s | 0°C | 0% | 0hPa | 0V | 00:00:00 | 00:00:00 | 00:00:00 | |
| DB0UT-7 | 2026-09-01 11:34:20 | 47.08041 | 2.79048 | 72° | 75km/h | 9351m | 4.7m/s | 0°C | 0% | 0hPa | 0V | 00:00:00 | 00:00:00 | 00:00:00 | |
| DB0UT-7 | 2026-09-01 11:33:50 | 47.07853 | 2.78248 | 72° | 75km/h | 9219m | 5.1m/s | 0°C | 0% | 0hPa | 0V | 00:00:00 | 00:00:00 | 00:00:00 | |
| DB0UT-7 | 2026-09-01 11:33:20 | 47.07686 | 2.77451 | 74° | 73km/h | 9103m | 5.8m/s | 0°C | 0% | 0hPa | 0V | 00:00:00 | 00:00:00 | 00:00:00 | |
| DB0UT-7 | 2026-09-01 11:32:48 | 47.07523 | 2.76608 | 73° | 75km/h | 8967m | 4.5m/s | 0°C | 0% | 0hPa | 0V | 00:00:00 | 00:00:00 | 00:00:00 | |
| DB0UT-7 | 2026-09-01 11:32:18 | 47.07364 | 2.75811 | 72° | 77km/h | 8847m | 4.8m/s | 0°C | 0% | 0hPa | 0V | 00:00:00 | 00:00:00 | 00:00:00 |